createdAt,value
2022-10-23T00:00:12.458Z,2.70
2022-10-23T00:02:40.525Z,1.42
2022-10-23T00:05:15.375Z,3.08
2022-10-23T00:07:43.052Z,3.80
2022-10-23T00:10:11.198Z,2.50
2022-10-23T00:12:45.562Z,2.58
2022-10-23T00:15:13.550Z,2.88
2022-10-23T00:17:43.652Z,3.60
2022-10-23T00:20:19.365Z,3.83
2022-10-23T00:22:46.809Z,7.00
2022-10-23T00:25:14.220Z,4.40
2022-10-23T00:27:48.353Z,4.50
2022-10-23T00:30:15.852Z,3.75
2022-10-23T00:32:43.308Z,5.38
2022-10-23T00:35:17.374Z,3.67
2022-10-23T00:37:44.946Z,3.03
2022-10-23T00:40:15.147Z,2.92
2022-10-23T00:42:52.908Z,2.15
2022-10-23T00:45:26.977Z,3.05
2022-10-23T00:48:01.943Z,1.60
2022-10-23T00:50:32.494Z,2.55
2022-10-23T00:53:13.109Z,6.55
2022-10-23T00:55:51.302Z,2.63
2022-10-23T00:58:26.675Z,10.43
2022-10-23T01:00:56.464Z,3.83
2022-10-23T01:03:33.649Z,4.13
2022-10-23T01:06:28.455Z,3.58
2022-10-23T01:09:25.657Z,3.15
2022-10-23T01:11:57.527Z,2.47
2022-10-23T01:14:46.655Z,1.95
2022-10-23T01:17:23.317Z,2.60
2022-10-23T01:20:38.364Z,4.03
2022-10-23T01:23:27.721Z,1.83
2022-10-23T01:26:32.374Z,3.08
2022-10-23T01:29:03.442Z,3.55
2022-10-23T01:32:03.349Z,6.40
2022-10-23T01:34:39.898Z,3.10
2022-10-23T01:37:22.007Z,1.75
2022-10-23T01:39:58.097Z,2.35
2022-10-23T01:42:46.262Z,1.23
2022-10-23T01:45:30.303Z,2.13
2022-10-23T01:48:04.281Z,2.38
2022-10-23T01:50:35.602Z,2.47
2022-10-23T01:53:11.259Z,4.32
2022-10-23T01:55:48.371Z,3.30
2022-10-23T01:58:30.285Z,1.90
2022-10-23T02:01:03.440Z,1.75
2022-10-23T02:03:40.315Z,1.38
2022-10-23T02:06:08.358Z,1.70
2022-10-23T02:08:36.240Z,2.40
2022-10-23T02:11:16.254Z,1.90
2022-10-23T02:14:24.717Z,2.30
2022-10-23T02:17:01.288Z,3.15
2022-10-23T02:19:47.103Z,2.05
2022-10-23T02:22:33.286Z,2.90
2022-10-23T02:25:11.475Z,4.00
2022-10-23T02:27:48.280Z,2.95
2022-10-23T02:30:20.168Z,1.08
2022-10-23T02:32:58.406Z,1.00
2022-10-23T02:35:26.450Z,2.92
2022-10-23T02:37:55.807Z,1.27
2022-10-23T02:40:35.393Z,1.20
2022-10-23T02:43:37.455Z,1.45
2022-10-23T02:46:35.365Z,0.70
2022-10-23T02:49:23.136Z,3.70
2022-10-23T02:52:14.051Z,0.90
2022-10-23T02:55:05.152Z,2.78
2022-10-23T02:58:16.081Z,0.80
2022-10-23T03:00:48.950Z,2.67
2022-10-23T03:03:47.095Z,3.13
2022-10-23T03:06:15.868Z,2.05
2022-10-23T03:09:04.150Z,1.48
2022-10-23T03:11:31.670Z,2.95
2022-10-23T03:13:59.006Z,1.98
2022-10-23T03:16:35.886Z,3.72
2022-10-23T03:19:03.450Z,0.77
2022-10-23T03:21:31.020Z,2.90
2022-10-23T03:24:06.768Z,2.13
2022-10-23T03:26:34.123Z,1.40
2022-10-23T03:29:01.492Z,0.80
2022-10-23T03:31:35.730Z,3.67
2022-10-23T03:34:05.189Z,1.45
2022-10-23T03:36:35.648Z,2.08
2022-10-23T03:39:10.751Z,0.90
2022-10-23T03:41:38.152Z,2.70
2022-10-23T03:46:39.743Z,1.88
2022-10-23T03:49:07.334Z,2.92
2022-10-23T03:51:36.822Z,2.75
2022-10-23T03:54:10.808Z,2.60
2022-10-23T03:56:46.352Z,1.25
2022-10-23T03:59:20.300Z,3.05
2022-10-23T04:01:47.816Z,1.02
2022-10-23T04:04:20.399Z,0.60
2022-10-23T04:06:56.357Z,2.15
2022-10-23T04:09:28.241Z,0.80
2022-10-23T04:11:58.861Z,2.47
2022-10-23T04:14:33.815Z,1.13
2022-10-23T04:17:01.167Z,1.50
2022-10-23T04:19:30.058Z,1.00
2022-10-23T04:22:03.833Z,1.33
2022-10-23T04:24:31.211Z,0.80
2022-10-23T04:26:58.508Z,3.00
2022-10-23T04:29:33.842Z,0.40
2022-10-23T04:32:01.379Z,2.80
2022-10-23T04:34:28.836Z,1.70
2022-10-23T04:37:03.037Z,1.00
2022-10-23T04:39:30.582Z,1.30
2022-10-23T04:41:58.064Z,1.42
2022-10-23T04:44:34.934Z,1.02
2022-10-23T04:47:06.120Z,0.30
2022-10-23T04:49:35.215Z,1.23
2022-10-23T04:52:12.175Z,0.60
2022-10-23T04:54:42.646Z,1.35
2022-10-23T04:57:23.762Z,1.20
2022-10-23T04:59:51.547Z,2.22
2022-10-23T05:02:19.049Z,0.50
2022-10-23T05:04:53.603Z,0.52
2022-10-23T05:09:52.072Z,1.20
2022-10-23T05:12:26.960Z,0.77
2022-10-23T05:14:54.897Z,0.70
2022-10-23T05:17:36.353Z,2.33
2022-10-23T05:20:12.795Z,0.43
2022-10-23T05:22:49.941Z,0.77
2022-10-23T05:25:22.949Z,0.47
2022-10-23T05:27:50.413Z,0.50
2022-10-23T05:30:24.936Z,1.02
2022-10-23T05:32:55.268Z,0.60
2022-10-23T05:35:25.552Z,1.10
2022-10-23T05:38:02.615Z,2.58
2022-10-23T05:40:30.523Z,0.70
2022-10-23T05:42:58.052Z,1.60
2022-10-23T05:45:32.608Z,1.50
2022-10-23T05:48:10.827Z,3.30
2022-10-23T05:50:51.723Z,3.03
2022-10-23T05:53:19.637Z,2.47
2022-10-23T05:56:00.651Z,0.32
2022-10-23T05:58:35.212Z,0.98
2022-10-23T06:01:17.746Z,1.70
2022-10-23T06:03:45.581Z,1.08
2022-10-23T06:06:13.235Z,1.95
2022-10-23T06:08:47.667Z,1.67
2022-10-23T06:11:16.585Z,2.35
2022-10-23T06:13:45.829Z,2.30
2022-10-23T06:16:22.746Z,0.40
2022-10-23T06:18:50.290Z,1.10
2022-10-23T06:21:22.527Z,0.55
2022-10-23T06:23:56.767Z,0.45
2022-10-23T06:26:24.759Z,1.23
2022-10-23T06:28:52.404Z,2.03
2022-10-23T06:31:26.819Z,2.33
2022-10-23T06:33:59.040Z,0.65
2022-10-23T06:36:33.761Z,2.22
2022-10-23T06:39:01.448Z,1.65
2022-10-23T06:41:52.701Z,0.90
2022-10-23T06:44:29.341Z,1.00
2022-10-23T06:47:03.258Z,0.65
2022-10-23T06:49:31.165Z,1.13
2022-10-23T06:51:59.009Z,1.27
2022-10-23T06:54:40.467Z,0.77
2022-10-23T06:57:14.455Z,1.95
2022-10-23T06:59:52.405Z,1.77
2022-10-23T07:02:21.966Z,0.73
2022-10-23T07:04:49.826Z,0.60
2022-10-23T07:07:24.032Z,3.60
2022-10-23T07:09:54.875Z,0.60
2022-10-23T07:12:23.066Z,2.60
2022-10-23T07:15:03.661Z,1.00
2022-10-23T07:17:31.378Z,1.25
2022-10-23T07:19:59.350Z,0.95
2022-10-23T07:22:33.580Z,1.38
2022-10-23T07:25:03.883Z,3.13
2022-10-23T07:27:46.218Z,0.52
2022-10-23T07:30:14.772Z,0.22
2022-10-23T07:32:43.179Z,0.70
2022-10-23T07:35:19.959Z,0.50
2022-10-23T07:37:48.937Z,1.77
2022-10-23T07:40:19.155Z,1.15
2022-10-23T07:42:53.869Z,0.40
2022-10-23T07:45:21.684Z,0.20
2022-10-23T07:47:52.927Z,0.40
2022-10-23T07:50:26.835Z,0.98
2022-10-23T07:52:54.772Z,0.57
2022-10-23T07:55:42.858Z,1.13
2022-10-23T07:58:10.594Z,1.23
2022-10-23T08:00:41.585Z,1.95
2022-10-23T08:03:17.921Z,1.25
2022-10-23T08:05:48.030Z,0.90
2022-10-23T08:08:16.729Z,0.70
2022-10-23T08:10:52.978Z,0.55
2022-10-23T08:13:21.969Z,0.75
2022-10-23T08:15:51.379Z,2.78
2022-10-23T08:18:26.005Z,1.27
2022-10-23T08:20:53.793Z,0.40
2022-10-23T08:23:23.937Z,0.50
2022-10-23T08:26:09.014Z,0.70
2022-10-23T08:28:37.151Z,2.28
2022-10-23T08:31:20.033Z,2.30
2022-10-23T08:36:32.399Z,0.65
2022-10-23T08:39:00.675Z,0.50
2022-10-23T08:41:40.066Z,0.50
2022-10-23T08:44:22.941Z,1.08
2022-10-23T08:47:14.145Z,0.82
2022-10-23T08:49:45.072Z,0.60
2022-10-23T08:52:25.928Z,1.83
2022-10-23T08:55:01.739Z,0.55
2022-10-23T08:57:51.907Z,1.17
2022-10-23T09:00:22.762Z,0.40
2022-10-23T09:03:00.791Z,0.30
2022-10-23T09:05:51.875Z,0.40
2022-10-23T09:08:44.850Z,0.45
2022-10-23T09:11:32.672Z,0.65
2022-10-23T09:14:25.872Z,1.95
2022-10-23T09:17:05.722Z,0.35
2022-10-23T09:19:42.822Z,0.52
2022-10-23T09:22:12.169Z,0.22
2022-10-23T09:24:53.889Z,0.93
2022-10-23T09:27:22.326Z,0.95
2022-10-23T09:30:05.814Z,3.15
2022-10-23T09:32:37.897Z,1.05
2022-10-23T09:35:12.836Z,3.45
2022-10-23T09:37:55.891Z,0.32
2022-10-23T09:40:45.658Z,0.85
2022-10-23T09:43:22.027Z,2.42
2022-10-23T09:46:09.684Z,0.82
2022-10-23T09:48:39.029Z,0.50
2022-10-23T09:51:26.775Z,0.60
2022-10-23T09:53:59.321Z,0.75
2022-10-23T09:56:55.419Z,0.50
2022-10-23T09:59:28.102Z,0.50
2022-10-23T10:02:11.479Z,1.23
2022-10-23T10:04:45.783Z,0.40
2022-10-23T10:07:36.853Z,0.30
2022-10-23T10:10:22.937Z,1.88
2022-10-23T10:13:05.131Z,0.80
2022-10-23T10:15:46.024Z,2.10
2022-10-23T10:18:39.092Z,2.25
2022-10-23T10:21:28.039Z,2.53
2022-10-23T10:24:30.323Z,0.65
2022-10-23T10:27:14.361Z,0.55
2022-10-23T10:30:26.181Z,0.50
2022-10-23T10:32:59.973Z,1.52
2022-10-23T10:36:03.982Z,0.40
2022-10-23T10:38:45.681Z,0.75
2022-10-23T10:41:39.115Z,2.85
2022-10-23T10:44:38.894Z,1.35
2022-10-23T10:47:33.119Z,2.88
2022-10-23T10:50:23.962Z,1.73
2022-10-23T10:53:19.085Z,3.30
2022-10-23T10:59:01.205Z,0.60
2022-10-23T11:01:35.452Z,2.67
2022-10-23T11:04:39.262Z,0.52
2022-10-23T11:07:12.257Z,0.38
2022-10-23T11:09:49.148Z,1.00
2022-10-23T11:12:26.638Z,3.10
2022-10-23T11:15:03.209Z,3.80
2022-10-23T11:17:40.451Z,2.17
2022-10-23T11:20:46.098Z,1.00
2022-10-23T11:23:32.672Z,1.30
2022-10-23T11:26:27.094Z,1.63
2022-10-23T11:29:04.491Z,1.30
2022-10-23T11:31:42.289Z,0.90
2022-10-23T11:34:38.348Z,1.65
2022-10-23T11:37:13.174Z,0.80
2022-10-23T11:39:41.433Z,2.30
2022-10-23T11:42:21.198Z,2.75
2022-10-23T11:44:51.057Z,4.82
2022-10-23T11:47:50.163Z,0.95
2022-10-23T11:50:49.465Z,2.38
2022-10-23T11:53:39.201Z,1.05
2022-10-23T11:56:28.166Z,1.52
2022-10-23T11:59:17.049Z,1.02
2022-10-23T12:01:45.797Z,1.85
2022-10-23T12:04:14.091Z,2.13
2022-10-23T12:06:55.037Z,1.50
2022-10-23T12:09:45.363Z,3.72
2022-10-23T12:12:22.103Z,3.28
2022-10-23T12:14:52.017Z,2.15
2022-10-23T12:17:32.497Z,3.45
2022-10-23T12:20:12.743Z,2.28
2022-10-23T12:22:49.055Z,3.15
2022-10-23T12:25:35.273Z,2.00
2022-10-23T12:28:41.284Z,0.93
2022-10-23T12:31:44.269Z,1.85
2022-10-23T12:34:46.119Z,2.20
2022-10-23T12:37:39.743Z,4.60
2022-10-23T12:40:17.144Z,1.65
2022-10-23T12:42:54.150Z,2.42
2022-10-23T12:45:33.021Z,3.33
2022-10-23T12:48:02.597Z,1.75
2022-10-23T12:50:33.053Z,2.40
2022-10-23T12:53:15.265Z,5.13
2022-10-23T12:56:14.061Z,0.70
2022-10-23T12:58:59.097Z,3.60
2022-10-23T13:01:29.748Z,3.42
2022-10-23T13:04:10.213Z,6.25
2022-10-23T13:06:39.484Z,2.80
2022-10-23T13:09:22.119Z,2.40
2022-10-23T13:11:52.136Z,5.25
2022-10-23T13:14:43.605Z,6.32
2022-10-23T13:17:13.136Z,3.70
2022-10-23T13:19:50.372Z,1.77
2022-10-23T13:22:22.731Z,2.92
2022-10-23T13:24:50.689Z,3.00
2022-10-23T13:27:40.661Z,2.30
2022-10-23T13:30:35.548Z,3.67
2022-10-23T13:33:19.489Z,6.22
2022-10-23T13:36:00.114Z,1.60
2022-10-23T13:38:42.689Z,3.83
2022-10-23T13:41:16.261Z,4.22
2022-10-23T13:43:52.550Z,3.75
2022-10-23T13:46:26.231Z,1.52
2022-10-23T13:49:00.576Z,2.95
2022-10-23T13:51:43.449Z,2.85
2022-10-23T13:54:35.532Z,2.67
2022-10-23T13:57:27.480Z,6.57
2022-10-23T14:00:01.495Z,3.42
2022-10-23T14:02:29.593Z,5.00
2022-10-23T14:04:57.199Z,1.67
2022-10-23T14:07:35.120Z,3.65
2022-10-23T14:10:02.946Z,1.95
2022-10-23T14:12:30.737Z,4.65
2022-10-23T14:15:05.085Z,2.00
2022-10-23T14:17:34.048Z,2.33
2022-10-23T14:20:06.088Z,1.60
2022-10-23T14:22:40.841Z,7.28
2022-10-23T14:25:09.230Z,10.77
2022-10-23T14:27:36.870Z,6.28
2022-10-23T14:30:14.899Z,3.80
2022-10-23T14:32:42.820Z,5.05
2022-10-23T14:35:10.865Z,3.63
2022-10-23T14:37:46.249Z,2.03
2022-10-23T14:40:17.734Z,3.60
2022-10-23T14:42:45.481Z,3.30
2022-10-23T14:45:19.968Z,4.47
2022-10-23T14:47:49.723Z,2.55
2022-10-23T14:50:17.530Z,4.18
2022-10-23T14:52:52.069Z,1.63
2022-10-23T14:55:21.328Z,2.30
2022-10-23T14:58:04.984Z,1.65
2022-10-23T15:00:39.591Z,1.95
2022-10-23T15:03:07.163Z,4.20
2022-10-23T15:05:40.724Z,1.73
2022-10-23T15:08:08.226Z,3.20
2022-10-23T15:10:39.259Z,3.78
2022-10-23T15:13:13.787Z,5.32
2022-10-23T15:15:41.557Z,3.10
2022-10-23T15:18:09.158Z,1.38
2022-10-23T15:20:43.776Z,4.05
2022-10-23T15:23:11.419Z,2.97
2022-10-23T15:25:40.687Z,4.00
2022-10-23T15:28:16.444Z,1.73
2022-10-23T15:30:48.002Z,1.88
2022-10-23T15:33:23.756Z,1.48
2022-10-23T15:35:52.085Z,1.88
2022-10-23T15:38:20.341Z,3.22
2022-10-23T15:40:54.780Z,2.55
2022-10-23T15:43:24.639Z,3.70
2022-10-23T15:45:52.360Z,5.00
2022-10-23T15:48:26.673Z,2.28
2022-10-23T15:50:56.756Z,2.60
2022-10-23T15:53:24.213Z,5.05
2022-10-23T15:55:58.817Z,4.32
2022-10-23T15:58:32.754Z,1.33
2022-10-23T16:01:12.900Z,2.00
2022-10-23T16:03:40.658Z,2.85
2022-10-23T16:06:20.717Z,1.75
2022-10-23T16:08:49.392Z,3.30
2022-10-23T16:11:28.738Z,2.50
2022-10-23T16:13:59.206Z,2.03
2022-10-23T16:16:28.415Z,2.63
2022-10-23T16:19:06.693Z,4.25
2022-10-23T16:21:36.507Z,4.07
2022-10-23T16:24:13.729Z,3.83
2022-10-23T16:26:50.360Z,3.10
2022-10-23T16:29:24.703Z,3.55
2022-10-23T16:31:53.716Z,2.30
2022-10-23T16:34:22.056Z,2.85
2022-10-23T16:36:56.702Z,1.55
2022-10-23T16:39:24.183Z,4.50
2022-10-23T16:41:51.775Z,1.65
2022-10-23T16:44:25.703Z,3.65
2022-10-23T16:46:54.782Z,6.78
2022-10-23T16:49:22.690Z,6.55
2022-10-23T16:51:57.720Z,2.45
2022-10-23T16:54:25.695Z,1.20
2022-10-23T16:57:16.962Z,2.55
2022-10-23T16:59:46.366Z,9.07
2022-10-23T17:02:16.706Z,3.42
2022-10-23T17:04:51.501Z,1.85
2022-10-23T17:07:20.083Z,3.42
2022-10-23T17:09:47.994Z,4.10
2022-10-23T17:12:22.454Z,4.15
2022-10-23T17:14:53.408Z,4.75
2022-10-23T17:17:21.041Z,4.50
2022-10-23T17:19:55.538Z,7.07
2022-10-23T17:22:23.260Z,5.45
2022-10-23T17:24:53.842Z,6.28
2022-10-23T17:27:28.482Z,3.90
2022-10-23T17:29:56.113Z,5.03
2022-10-23T17:32:24.043Z,4.25
2022-10-23T17:34:58.568Z,8.30
2022-10-23T17:37:28.092Z,5.20
2022-10-23T17:39:58.004Z,7.00
2022-10-23T17:42:38.337Z,9.73
2022-10-23T17:45:06.273Z,5.93
2022-10-23T17:47:34.334Z,8.00
2022-10-23T17:50:08.342Z,5.00
2022-10-23T17:52:36.954Z,8.50
2022-10-23T17:55:05.206Z,15.05
2022-10-23T17:57:39.365Z,9.82
2022-10-23T18:00:07.775Z,7.93
2022-10-23T18:02:38.718Z,12.77
2022-10-23T18:05:14.459Z,12.00
2022-10-23T18:07:42.470Z,13.73
2022-10-23T18:10:12.631Z,8.05
2022-10-23T18:12:46.381Z,9.80
2022-10-23T18:15:14.096Z,12.02
2022-10-23T18:17:43.973Z,17.40
2022-10-23T18:20:21.850Z,17.77
2022-10-23T18:22:50.578Z,11.85
2022-10-23T18:25:18.250Z,14.32
2022-10-23T18:27:52.880Z,18.58
2022-10-23T18:30:20.364Z,12.18
2022-10-23T18:32:48.107Z,13.77
2022-10-23T18:35:22.836Z,16.52
2022-10-23T18:37:50.326Z,17.95
2022-10-23T18:40:18.262Z,24.38
2022-10-23T18:42:52.787Z,17.27
2022-10-23T18:45:20.525Z,15.48
2022-10-23T18:47:48.408Z,20.33
2022-10-23T18:50:23.928Z,11.60
2022-10-23T18:52:57.296Z,15.63
2022-10-23T18:58:26.286Z,13.32
2022-10-23T19:01:01.202Z,16.27
2022-10-23T19:03:29.241Z,14.60
2022-10-23T19:05:57.061Z,14.23
2022-10-23T19:08:30.826Z,15.05
2022-10-23T19:11:00.568Z,15.00
2022-10-23T19:13:28.363Z,18.48
2022-10-23T19:16:02.900Z,10.10
2022-10-23T19:18:32.040Z,14.10
2022-10-23T19:21:01.679Z,15.65
2022-10-23T19:23:37.719Z,12.88
2022-10-23T19:26:15.977Z,10.52
2022-10-23T19:28:54.277Z,18.73
2022-10-23T19:31:23.760Z,17.05
2022-10-23T19:33:53.819Z,16.40
2022-10-23T19:36:30.710Z,14.02
2022-10-23T19:38:58.809Z,15.75
2022-10-23T19:41:26.828Z,17.88
2022-10-23T19:44:03.621Z,12.60
2022-10-23T19:46:31.375Z,13.45
2022-10-23T19:48:59.541Z,12.85
2022-10-23T19:51:36.661Z,10.38
2022-10-23T19:54:04.839Z,15.82
2022-10-23T19:56:49.695Z,20.25
2022-10-23T19:59:24.086Z,20.98
2022-10-23T20:01:58.869Z,18.85
2022-10-23T20:04:29.070Z,19.73
2022-10-23T20:06:57.636Z,19.15
2022-10-23T20:09:31.424Z,15.48
2022-10-23T20:12:00.868Z,15.75
2022-10-23T20:14:28.815Z,13.25
2022-10-23T20:17:02.727Z,9.57
2022-10-23T20:19:37.937Z,14.68
2022-10-23T20:22:12.862Z,10.80
2022-10-23T20:24:42.540Z,15.68
2022-10-23T20:27:21.584Z,12.70
2022-10-23T20:29:54.172Z,11.85
2022-10-23T20:32:21.860Z,14.00
2022-10-23T20:35:00.903Z,16.05
2022-10-23T20:37:29.334Z,15.23
2022-10-23T20:39:56.961Z,14.70
2022-10-23T20:42:31.077Z,12.32
2022-10-23T20:44:58.849Z,15.93
2022-10-23T20:47:28.930Z,13.55
2022-10-23T20:50:05.838Z,12.60
2022-10-23T20:55:27.956Z,11.45
2022-10-23T20:58:15.577Z,17.48
2022-10-23T21:00:49.963Z,13.85
2022-10-23T21:03:17.833Z,16.08
2022-10-23T21:05:45.475Z,18.92
2022-10-23T21:08:20.109Z,16.85
2022-10-23T21:10:48.639Z,17.05
2022-10-23T21:13:16.942Z,15.82
2022-10-23T21:15:50.562Z,16.08
2022-10-23T21:18:34.133Z,14.32
2022-10-23T21:21:13.678Z,15.57
2022-10-23T21:23:41.347Z,12.30
2022-10-23T21:26:09.439Z,16.23
2022-10-23T21:28:50.781Z,11.18
2022-10-23T21:31:28.709Z,19.90
2022-10-23T21:34:02.729Z,9.55
2022-10-23T21:36:34.309Z,23.77
2022-10-23T21:39:13.597Z,11.30
2022-10-23T21:41:41.038Z,13.40
2022-10-23T21:44:11.096Z,13.75
2022-10-23T21:46:45.667Z,11.80
2022-10-23T21:49:13.290Z,13.45
2022-10-23T21:51:41.687Z,11.63
2022-10-23T21:54:24.012Z,11.55
2022-10-23T21:57:11.888Z,10.73
2022-10-23T21:59:45.908Z,12.43
2022-10-23T22:02:13.798Z,11.05
2022-10-23T22:04:41.849Z,13.30
2022-10-23T22:07:20.895Z,10.73
2022-10-23T22:09:48.501Z,11.55
2022-10-23T22:12:16.037Z,11.27
2022-10-23T22:14:49.903Z,7.80
2022-10-23T22:17:17.474Z,15.30
2022-10-23T22:19:44.973Z,5.40
2022-10-23T22:22:18.905Z,8.45
2022-10-23T22:24:46.336Z,6.70
2022-10-23T22:27:13.768Z,13.63
2022-10-23T22:29:47.913Z,9.50
2022-10-23T22:32:15.391Z,9.68
2022-10-23T22:34:52.998Z,5.47
2022-10-23T22:37:27.182Z,12.70
2022-10-23T22:39:56.599Z,8.15
2022-10-23T22:42:24.035Z,10.57
2022-10-23T22:44:59.614Z,6.30
2022-10-23T22:47:29.226Z,5.30
2022-10-23T22:49:59.126Z,5.07
2022-10-23T22:52:34.482Z,4.03
2022-10-23T22:55:01.912Z,6.40
2022-10-23T22:57:48.474Z,9.88
2022-10-23T23:00:18.543Z,30.30
2022-10-23T23:02:46.133Z,10.82
2022-10-23T23:05:24.290Z,8.57
2022-10-23T23:07:51.751Z,10.40
2022-10-23T23:10:19.157Z,5.75
2022-10-23T23:12:53.223Z,8.57
2022-10-23T23:15:20.651Z,7.13
2022-10-23T23:17:54.121Z,8.20
2022-10-23T23:20:29.634Z,14.82
2022-10-23T23:22:57.006Z,6.90
2022-10-23T23:25:24.413Z,10.65
2022-10-23T23:28:05.342Z,11.32
2022-10-23T23:30:37.045Z,10.68
2022-10-23T23:33:04.647Z,11.00
2022-10-23T23:35:38.999Z,8.07
2022-10-23T23:38:06.541Z,7.65
2022-10-23T23:40:34.118Z,7.20
2022-10-23T23:43:09.024Z,9.60
2022-10-23T23:45:36.410Z,4.45
2022-10-23T23:48:03.960Z,10.85
2022-10-23T23:50:37.975Z,7.40
2022-10-23T23:53:05.455Z,7.78
2022-10-23T23:55:34.751Z,12.95
2022-10-23T23:58:09.013Z,11.45
